Time;durP1;ratioP1;P1;durP2;ratioP2;P2;SDS_P1;SDS_P2;PMS_P1;PMS_P2;Temp;Humidity;BMP_temperature;BMP_pressure;BME280_temperature;BME280_humidity;BME280_pressure;Samples;Min_cycle;Max_cycle;Signal;HPM_P1;HPM_P2
2023/10/01 00:00:05;;;;;;;105.32;56.03;;;20.90;72.80;;;;;;4932691;28;89333;-39
2023/10/01 00:02:32;;;;;;;107.85;56.80;;;20.90;72.90;;;;;;4932323;28;90298;-41
2023/10/01 00:04:57;;;;;;;106.53;56.50;;;20.90;73.00;;;;;;4933172;28;92590;-42
2023/10/01 00:07:23;;;;;;;106.47;56.53;;;20.90;72.90;;;;;;4932720;28;89297;-42
2023/10/01 00:09:49;;;;;;;106.28;56.33;;;20.90;72.90;;;;;;4928661;28;91019;-43
2023/10/01 00:12:15;;;;;;;105.97;56.22;;;20.90;72.80;;;;;;4927875;28;88857;-41
2023/10/01 00:14:40;;;;;;;108.25;56.35;;;20.90;72.90;;;;;;4935611;28;89692;-42
2023/10/01 00:17:06;;;;;;;107.40;56.60;;;20.90;72.90;;;;;;4931180;28;89683;-42
2023/10/01 00:19:33;;;;;;;106.10;56.22;;;20.90;72.90;;;;;;4931373;28;90711;-41
2023/10/01 00:22:00;;;;;;;106.63;56.42;;;20.90;73.10;;;;;;4930435;28;89389;-41
2023/10/01 00:24:26;;;;;;;107.03;56.55;;;20.80;72.80;;;;;;4927906;28;91010;-40
2023/10/01 00:26:52;;;;;;;106.97;56.25;;;20.80;73.00;;;;;;4934686;28;89959;-41
2023/10/01 00:29:18;;;;;;;105.05;55.72;;;20.80;73.00;;;;;;4933376;28;89988;-42
2023/10/01 00:31:45;;;;;;;106.50;56.10;;;20.90;73.10;;;;;;4929025;28;90767;-42
2023/10/01 00:34:12;;;;;;;105.60;55.95;;;20.80;73.00;;;;;;4931298;28;89735;-41
2023/10/01 00:36:37;;;;;;;104.72;55.88;;;20.80;73.10;;;;;;4932084;28;89430;-41
2023/10/01 00:39:03;;;;;;;105.68;56.38;;;20.80;73.10;;;;;;4928937;28;90174;-41
2023/10/01 00:41:29;;;;;;;106.95;56.10;;;20.80;73.10;;;;;;4932614;28;90869;-42
2023/10/01 00:43:59;;;;;;;104.85;55.78;;;20.80;73.00;;;;;;4929351;28;91756;-40
2023/10/01 00:46:25;;;;;;;107.00;56.55;;;20.80;73.10;;;;;;4934846;28;91817;-41
2023/10/01 00:48:52;;;;;;;104.85;55.65;;;20.80;73.90;;;;;;4931253;28;93876;-41
2023/10/01 00:51:20;;;;;;;106.95;56.67;;;20.80;73.10;;;;;;4933849;28;90035;-41
2023/10/01 00:53:46;;;;;;;105.10;56.17;;;20.80;73.10;;;;;;4926872;28;89585;-41
2023/10/01 00:56:12;;;;;;;105.78;56.20;;;20.80;73.20;;;;;;4927094;28;90223;-41
2023/10/01 00:58:38;;;;;;;105.68;56.05;;;20.80;73.20;;;;;;4927852;28;90107;-41
2023/10/01 01:01:07;;;;;;;106.50;56.25;;;20.70;73.20;;;;;;4906648;28;94084;-41
2023/10/01 01:03:34;;;;;;;107.50;56.63;;;20.70;73.20;;;;;;4925597;28;91105;-41
2023/10/01 01:08:33;;;;;;;104.80;55.70;;;20.80;73.20;;;;;;4926504;28;95751;-42
2023/10/01 01:11:01;;;;;;;;;;;20.70;73.20;;;;;;4933025;28;90049;-40
2023/10/01 01:13:29;;;;;;;105.97;56.20;;;20.70;73.20;;;;;;4931491;28;89526;-43
2023/10/01 01:15:57;;;;;;;106.05;55.85;;;20.70;73.40;;;;;;4925047;28;90569;-41
2023/10/01 01:18:26;;;;;;;106.90;56.03;;;20.70;73.30;;;;;;4933376;28;90525;-41
2023/10/01 01:20:58;;;;;;;105.15;55.90;;;20.70;73.40;;;;;;4932691;28;90976;-42
2023/10/01 01:23:24;;;;;;;105.82;56.05;;;20.70;74.20;;;;;;4926583;28;93260;-41
2023/10/01 01:25:52;;;;;;;106.13;56.15;;;20.70;73.40;;;;;;4926867;28;91445;-41
2023/10/01 01:28:27;;;;;;;107.18;56.25;;;20.70;73.40;;;;;;4933356;28;89684;-41
2023/10/01 01:30:58;;;;;;;105.97;55.92;;;20.70;73.40;;;;;;4928477;28;90913;-41
2023/10/01 01:33:31;;;;;;;106.38;56.08;;;20.70;73.50;;;;;;4930346;28;92354;-41
2023/10/01 01:35:58;;;;;;;105.63;55.85;;;20.60;73.40;;;;;;4932158;28;92353;-40
2023/10/01 01:38:24;;;;;;;106.68;55.75;;;20.60;73.50;;;;;;4928633;28;89913;-41
2023/10/01 01:40:52;;;;;;;104.13;55.85;;;20.60;73.50;;;;;;4931698;28;89391;-40
2023/10/01 01:43:30;;;;;;;105.68;55.97;;;20.60;74.30;;;;;;4926177;28;94692;-41
2023/10/01 01:46:00;;;;;;;105.85;56.20;;;20.60;73.60;;;;;;4926779;28;90889;-41
2023/10/01 01:50:58;;;;;;;105.57;55.70;;;20.60;73.60;;;;;;4933420;28;89068;-41
2023/10/01 01:53:35;;;;;;;105.07;56.25;;;20.60;73.60;;;;;;4930881;28;90657;-40
2023/10/01 01:56:13;;;;;;;104.38;55.80;;;20.60;73.60;;;;;;4929784;28;94660;-41
2023/10/01 01:58:41;;;;;;;106.15;56.42;;;20.60;73.60;;;;;;4929978;28;91669;-42
2023/10/01 02:03:39;;;;;;;105.93;55.75;;;20.50;73.60;;;;;;4926025;28;91665;-41
2023/10/01 02:06:06;;;;;;;104.43;55.75;;;20.50;73.70;;;;;;4931638;28;90258;-40
2023/10/01 02:08:49;;;;;;;104.88;56.17;;;20.50;74.50;;;;;;4925124;28;91165;-41
2023/10/01 02:11:18;;;;;;;105.93;55.78;;;20.50;73.70;;;;;;4927795;28;90392;-41
2023/10/01 02:13:46;;;;;;;104.78;55.78;;;20.50;73.70;;;;;;4921940;28;90084;-43
2023/10/01 02:19:14;;;;;;;103.33;55.33;;;20.50;73.90;;;;;;4933336;28;90247;-41
2023/10/01 02:21:47;;;;;;;105.20;55.95;;;20.50;73.80;;;;;;4929664;28;89622;-41
2023/10/01 02:24:19;;;;;;;105.57;55.70;;;20.50;73.70;;;;;;4926371;28;90945;-41
2023/10/01 02:26:46;;;;;;;104.30;55.95;;;20.50;73.70;;;;;;4925148;28;90172;-41
2023/10/01 02:29:13;;;;;;;105.68;55.92;;;20.40;73.80;;;;;;4930890;28;90013;-41
2023/10/01 02:31:46;;;;;;;104.88;55.70;;;20.50;73.70;;;;;;4926176;28;90500;-41
2023/10/01 02:34:11;;;;;;;105.32;55.65;;;20.50;73.70;;;;;;4925657;28;89956;-41
2023/10/01 02:36:42;;;;;;;104.85;55.95;;;20.50;73.70;;;;;;4927318;28;89841;-40
2023/10/01 02:39:21;;;;;;;104.18;55.97;;;20.50;73.70;;;;;;4934117;28;90817;-41
2023/10/01 02:42:09;;;;;;;105.20;56.00;;;20.50;73.80;;;;;;4928105;28;89094;-41
2023/10/01 02:44:38;;;;;;;106.45;56.35;;;20.50;73.80;;;;;;4932025;28;90191;-40
2023/10/01 02:47:16;;;;;;;106.13;55.90;;;20.40;73.80;;;;;;4930578;28;89510;-41
2023/10/01 02:49:49;;;;;;;104.88;55.47;;;20.40;73.90;;;;;;4933383;28;91277;-43
2023/10/01 02:52:21;;;;;;;104.63;55.40;;;20.40;73.80;;;;;;4930289;28;89525;-40
2023/10/01 02:54:53;;;;;;;104.70;55.65;;;20.50;73.90;;;;;;4932652;28;93087;-41
2023/10/01 02:57:26;;;;;;;104.38;55.80;;;20.40;73.90;;;;;;4928621;28;91273;-41
2023/10/01 03:00:20;;;;;;;104.82;55.85;;;20.40;74.00;;;;;;4935365;28;89933;-40
2023/10/01 03:02:52;;;;;;;104.88;55.97;;;20.40;73.90;;;;;;4924934;28;89781;-40
2023/10/01 03:05:19;;;;;;;105.30;55.72;;;20.40;73.90;;;;;;4933474;28;90195;-43
2023/10/01 03:07:50;;;;;;;105.22;56.10;;;20.40;74.00;;;;;;4931106;28;89285;-42
2023/10/01 03:10:24;;;;;;;;;;;20.30;74.00;;;;;;4934889;28;92188;-42
2023/10/01 03:12:55;;;;;;;104.35;55.65;;;20.30;73.90;;;;;;4932672;28;89853;-41
2023/10/01 03:15:24;;;;;;;105.03;55.83;;;20.30;73.90;;;;;;4938767;28;91119;-40
2023/10/01 03:17:57;;;;;;;104.15;55.83;;;20.30;74.00;;;;;;4926220;28;95165;-41
2023/10/01 03:28:32;;;;;;;105.82;55.70;;;20.30;74.10;;;;;;4930172;28;89679;-41
2023/10/01 03:31:09;;;;;;;105.15;56.15;;;20.30;74.20;;;;;;4936584;28;89881;-41
2023/10/01 03:33:39;;;;;;;105.85;56.35;;;20.30;74.20;;;;;;4928294;28;89722;-41
2023/10/01 03:36:12;;;;;;;105.93;56.50;;;20.30;74.00;;;;;;4933499;28;90730;-41
2023/10/01 03:38:45;;;;;;;104.93;56.03;;;20.30;74.00;;;;;;4933188;28;90643;-41
2023/10/01 03:41:21;;;;;;;103.95;55.28;;;20.30;74.10;;;;;;4930672;28;90407;-40
2023/10/01 03:43:50;;;;;;;104.60;55.65;;;20.30;74.00;;;;;;4926556;28;91072;-40
2023/10/01 03:46:26;;;;;;;105.28;55.80;;;20.30;74.20;;;;;;4928052;28;92098;-41
2023/10/01 03:48:59;;;;;;;104.20;55.33;;;20.20;74.20;;;;;;4929924;28;95250;-40
2023/10/01 03:54:14;;;;;;;104.70;55.97;;;20.20;74.30;;;;;;4927583;28;90222;-40
2023/10/01 03:56:45;;;;;;;104.68;55.55;;;20.20;74.20;;;;;;4930143;28;89581;-41
2023/10/01 03:59:15;;;;;;;104.53;55.67;;;20.20;74.20;;;;;;4932263;28;89318;-40
2023/10/01 04:01:58;;;;;;;104.70;55.60;;;20.20;74.30;;;;;;4927941;28;90137;-41
2023/10/01 04:04:27;;;;;;;106.75;55.95;;;20.20;74.30;;;;;;4928616;28;91058;-41
2023/10/01 04:06:55;;;;;;;106.20;55.83;;;20.20;74.30;;;;;;4932701;28;91057;-40
2023/10/01 04:09:26;;;;;;;105.18;55.83;;;20.20;74.30;;;;;;4932136;28;92821;-42
2023/10/01 04:12:18;;;;;;;103.68;55.25;;;20.20;74.30;;;;;;4930424;28;90114;-40
2023/10/01 04:14:48;;;;;;;104.75;55.88;;;20.20;74.20;;;;;;4925674;28;90939;-42
2023/10/01 04:17:18;;;;;;;104.07;55.72;;;20.20;74.30;;;;;;4931818;28;89727;-40
2023/10/01 04:19:49;;;;;;;105.18;56.00;;;20.20;75.00;;;;;;4936392;28;91449;-41
2023/10/01 04:22:18;;;;;;;106.57;55.50;;;20.20;74.20;;;;;;4928093;28;89825;-41
2023/10/01 04:24:44;;;;;;;104.88;55.97;;;20.20;74.30;;;;;;4928406;28;93460;-42
2023/10/01 04:27:23;;;;;;;104.40;55.63;;;20.20;74.30;;;;;;4928876;28;90155;-41
2023/10/01 04:29:57;;;;;;;105.88;56.00;;;20.20;74.30;;;;;;4927700;28;90120;-41
2023/10/01 04:32:27;;;;;;;104.55;55.42;;;20.20;74.30;;;;;;4933603;28;91357;-42
2023/10/01 04:34:54;;;;;;;105.30;55.53;;;20.20;74.30;;;;;;4926492;28;90832;-40
2023/10/01 04:37:36;;;;;;;104.18;55.25;;;20.10;74.40;;;;;;4934102;28;93666;-41
2023/10/01 04:42:55;;;;;;;103.72;55.25;;;20.10;74.50;;;;;;4930484;28;89543;-41
2023/10/01 04:45:24;;;;;;;105.57;55.65;;;20.10;74.60;;;;;;4929098;28;90164;-41
2023/10/01 04:47:55;;;;;;;104.88;55.92;;;20.10;74.60;;;;;;4928282;28;91903;-41
2023/10/01 04:50:27;;;;;;;103.53;55.30;;;20.10;74.60;;;;;;4931451;28;89907;-42
2023/10/01 04:52:59;;;;;;;104.43;55.83;;;20.10;74.60;;;;;;4927308;28;89495;-40
2023/10/01 04:55:28;;;;;;;106.03;55.65;;;20.10;74.50;;;;;;4927659;28;90210;-42
2023/10/01 04:57:56;;;;;;;104.00;55.67;;;20.10;74.50;;;;;;4932644;28;90807;-40
2023/10/01 05:00:25;;;;;;;104.18;55.25;;;20.10;75.20;;;;;;4924870;28;91179;-41
2023/10/01 05:02:52;;;;;;;106.05;56.00;;;20.10;74.50;;;;;;4928331;28;89944;-41
2023/10/01 05:05:25;;;;;;;105.47;56.05;;;20.10;74.60;;;;;;4928893;28;90052;-42
2023/10/01 05:07:57;;;;;;;105.13;55.42;;;20.00;74.60;;;;;;4932815;28;90098;-41
2023/10/01 05:10:25;;;;;;;105.82;56.17;;;20.10;74.70;;;;;;4927618;28;90028;-43
2023/10/01 05:12:55;;;;;;;103.65;55.22;;;20.00;74.70;;;;;;4930421;28;90320;-41
2023/10/01 05:15:34;;;;;;;104.60;55.50;;;20.00;74.70;;;;;;4931500;28;91685;-41
2023/10/01 05:18:01;;;;;;;105.07;55.90;;;20.00;74.60;;;;;;4928353;28;91143;-41
2023/10/01 05:20:27;;;;;;;104.40;55.75;;;20.00;74.60;;;;;;4930380;28;90003;-41
2023/10/01 05:22:54;;;;;;;105.15;56.05;;;20.10;74.60;;;;;;4930250;28;90668;-41
2023/10/01 05:25:20;;;;;;;104.53;55.70;;;20.10;74.70;;;;;;4924642;28;89469;-42
2023/10/01 05:27:46;;;;;;;105.78;55.20;;;20.00;74.60;;;;;;4937400;28;90337;-40
2023/10/01 05:32:58;;;;;;;104.80;55.38;;;20.00;74.60;;;;;;4930253;28;89880;-44
2023/10/01 05:35:25;;;;;;;105.13;55.35;;;20.00;74.60;;;;;;4932437;28;90834;-41
2023/10/01 05:37:50;;;;;;;104.80;55.70;;;20.00;74.70;;;;;;4928175;28;92131;-41
2023/10/01 05:40:16;;;;;;;105.57;55.80;;;20.00;74.80;;;;;;4929090;28;90452;-41
2023/10/01 05:42:44;;;;;;;105.07;55.65;;;20.00;74.80;;;;;;4928467;28;92101;-41
2023/10/01 05:45:19;;;;;;;106.93;55.97;;;20.00;74.90;;;;;;4930890;28;90373;-43
2023/10/01 05:47:51;;;;;;;103.65;55.42;;;20.00;75.00;;;;;;4929158;28;90585;-43
2023/10/01 05:50:18;;;;;;;104.35;55.75;;;20.00;75.00;;;;;;4926079;28;90734;-42
2023/10/01 05:52:46;;;;;;;103.60;55.53;;;19.90;74.90;;;;;;4929391;28;90622;-41
2023/10/01 05:55:12;;;;;;;104.28;55.67;;;19.90;74.90;;;;;;4930639;28;89530;-41
2023/10/01 05:57:41;;;;;;;104.10;55.83;;;20.00;75.00;;;;;;4931367;28;89621;-41
2023/10/01 06:00:18;;;;;;;104.90;55.97;;;19.90;74.90;;;;;;4924609;28;89570;-41
2023/10/01 06:02:47;;;;;;;105.85;55.63;;;20.00;74.90;;;;;;4924563;28;90230;-43
2023/10/01 06:05:33;;;;;;;104.85;55.90;;;19.90;74.90;;;;;;4930468;28;89809;-41
2023/10/01 06:08:12;;;;;;;104.93;55.55;;;19.90;74.90;;;;;;4930052;28;89629;-44
2023/10/01 06:11:05;;;;;;;104.18;55.42;;;19.90;75.00;;;;;;4928937;28;89910;-41
2023/10/01 06:13:33;;;;;;;103.25;55.10;;;19.90;75.20;;;;;;4925237;28;91213;-41
2023/10/01 06:16:13;;;;;;;104.28;55.80;;;19.90;75.10;;;;;;4924482;28;94277;-41
2023/10/01 06:18:41;;;;;;;106.05;55.72;;;20.00;75.10;;;;;;4928897;28;91884;-42
2023/10/01 06:21:11;;;;;;;104.13;55.45;;;19.90;75.00;;;;;;4929162;28;90545;-40
2023/10/01 06:23:50;;;;;;;107.30;56.00;;;19.90;75.00;;;;;;4933860;28;89658;-41
2023/10/01 06:26:18;;;;;;;104.32;55.85;;;19.90;75.10;;;;;;4931061;28;90790;-41
2023/10/01 06:28:44;;;;;;;105.07;55.58;;;19.90;75.00;;;;;;4930740;28;91258;-41
2023/10/01 06:31:10;;;;;;;104.13;55.45;;;19.90;75.00;;;;;;4928940;28;93809;-41
2023/10/01 06:33:38;;;;;;;105.75;55.20;;;20.00;74.80;;;;;;4923085;28;90268;-41
2023/10/01 06:36:16;;;;;;;103.93;55.63;;;20.00;74.80;;;;;;4930951;28;89103;-41
2023/10/01 06:38:47;;;;;;;104.53;55.33;;;20.00;74.80;;;;;;4930154;28;91087;-41
2023/10/01 06:41:18;;;;;;;104.65;56.08;;;20.00;74.80;;;;;;4927717;28;90396;-42
2023/10/01 06:43:48;;;;;;;;;;;20.00;74.70;;;;;;4935132;28;90710;-41
2023/10/01 06:46:22;;;;;;;104.72;55.15;;;20.00;74.60;;;;;;4929514;28;89576;-42
2023/10/01 06:48:51;;;;;;;105.10;55.95;;;19.90;74.70;;;;;;4930125;28;90135;-40
2023/10/01 06:51:25;;;;;;;105.30;55.97;;;19.90;74.70;;;;;;4935042;28;89542;-41
2023/10/01 06:54:05;;;;;;;103.82;56.03;;;19.90;74.70;;;;;;4925392;28;89765;-41
2023/10/01 06:56:43;;;;;;;105.63;56.00;;;19.90;74.80;;;;;;4930485;28;88755;-41
2023/10/01 07:02:12;;;;;;;104.97;56.10;;;19.90;74.80;;;;;;4930359;28;90678;-40
2023/10/01 07:04:32;;;;;;;104.07;55.92;;;19.90;74.90;;;;;;4925333;28;91006;-41
2023/10/01 07:06:57;;;;;;;107.53;56.22;;;19.90;74.90;;;;;;4917197;28;91765;-41
2023/10/01 07:09:32;;;;;;;104.43;56.20;;;19.90;74.90;;;;;;4925961;28;90255;-43
2023/10/01 07:11:59;;;;;;;104.88;55.55;;;19.90;74.80;;;;;;4932108;28;90513;-41
2023/10/01 07:14:45;;;;;;;104.97;55.97;;;19.90;75.00;;;;;;4926452;28;91950;-41
2023/10/01 07:17:15;;;;;;;105.25;55.90;;;19.90;75.00;;;;;;4933418;28;89343;-43
2023/10/01 07:20:18;;;;;;;107.50;55.63;;;20.00;75.00;;;;;;4914157;28;91851;-41
2023/10/01 07:22:44;;;;;;;106.00;56.05;;;20.00;75.00;;;;;;4927503;28;91241;-41
2023/10/01 07:25:28;;;;;;;107.22;55.65;;;20.00;74.90;;;;;;4922044;28;91192;-43
2023/10/01 07:27:55;;;;;;;105.03;55.67;;;20.00;75.00;;;;;;4932768;28;89936;-41
2023/10/01 07:30:39;;;;;;;104.63;56.08;;;20.00;75.10;;;;;;4926068;28;91556;-42
2023/10/01 07:33:08;;;;;;;105.13;55.35;;;20.00;75.20;;;;;;4922200;28;91713;-42
2023/10/01 07:35:39;;;;;;;103.75;55.45;;;19.90;75.20;;;;;;4916510;28;93505;-41
2023/10/01 07:38:06;;;;;;;105.15;55.70;;;19.90;75.30;;;;;;4928672;28;90364;-41
2023/10/01 07:40:52;;;;;;;105.72;55.90;;;19.90;75.30;;;;;;4936090;28;91068;-42
2023/10/01 07:43:18;;;;;;;104.45;55.30;;;20.00;75.30;;;;;;4930301;28;90266;-42
2023/10/01 07:45:55;;;;;;;104.15;55.60;;;20.00;75.40;;;;;;4924543;28;90096;-41
2023/10/01 07:48:23;;;;;;;105.47;55.75;;;20.00;75.30;;;;;;4931837;28;89395;-41
2023/10/01 07:50:51;;;;;;;104.30;55.22;;;20.00;75.20;;;;;;4921163;28;92866;-41
2023/10/01 07:53:18;;;;;;;106.72;56.33;;;20.00;75.10;;;;;;4926282;28;89918;-42
2023/10/01 07:55:47;;;;;;;104.88;55.78;;;20.10;75.10;;;;;;4925338;28;91363;-41
2023/10/01 07:58:25;;;;;;;106.05;55.92;;;20.10;74.90;;;;;;4931883;28;91429;-41
2023/10/01 08:01:32;;;;;;;104.53;55.67;;;20.10;75.00;;;;;;4927655;28;90160;-41
2023/10/01 08:03:55;;;;;;;107.35;56.22;;;20.10;75.00;;;;;;4922715;28;89783;-41
2023/10/01 08:06:30;;;;;;;104.68;55.83;;;20.10;74.90;;;;;;4925738;28;90904;-41
2023/10/01 08:08:59;;;;;;;105.57;56.17;;;20.10;75.20;;;;;;4934382;28;90666;-44
2023/10/01 08:14:11;;;;;;;106.13;56.30;;;20.10;75.10;;;;;;4925864;28;93933;-41
2023/10/01 08:16:47;;;;;;;104.47;55.83;;;20.20;75.10;;;;;;4941909;28;95167;-41
2023/10/01 08:19:15;;;;;;;106.28;56.28;;;20.20;75.00;;;;;;4915934;28;90119;-40
2023/10/01 08:21:48;;;;;;;106.07;55.97;;;20.20;75.10;;;;;;4926497;28;91946;-41
2023/10/01 08:24:18;;;;;;;105.65;55.90;;;20.20;75.00;;;;;;4925667;28;91012;-42
2023/10/01 08:27:03;;;;;;;105.78;56.55;;;20.20;75.90;;;;;;4928970;28;89431;-41
2023/10/01 08:29:29;;;;;;;105.78;56.22;;;20.20;75.30;;;;;;4935788;28;89626;-41
2023/10/01 08:34:24;;;;;;;106.25;56.17;;;20.20;75.20;;;;;;4937296;28;89771;-41
2023/10/01 08:36:57;;;;;;;105.72;56.20;;;20.20;75.20;;;;;;4924245;28;92361;-41
2023/10/01 08:42:12;;;;;;;106.18;56.38;;;20.30;74.90;;;;;;4924582;28;94497;-40
2023/10/01 08:44:47;;;;;;;108.45;56.53;;;20.30;74.80;;;;;;4920518;28;90917;-40
2023/10/01 08:47:49;;;;;;;106.00;56.15;;;20.40;74.80;;;;;;4939025;28;90371;-41
2023/10/01 08:53:01;;;;;;;109.03;56.90;;;20.40;75.20;;;;;;4923940;28;90167;-41
2023/10/01 08:58:24;;;;;;;107.65;56.88;;;20.50;76.00;;;;;;4927606;28;89600;-40
2023/10/01 09:01:12;;;;;;;106.60;56.85;;;20.50;76.20;;;;;;4932665;28;89904;-40
2023/10/01 09:03:52;;;;;;;105.95;56.05;;;20.50;76.50;;;;;;4925197;28;90299;-40
2023/10/01 09:06:28;;;;;;;106.57;56.45;;;20.60;76.80;;;;;;4934716;28;90145;-41
2023/10/01 09:08:56;;;;;;;108.05;56.72;;;20.60;77.40;;;;;;4936272;28;90178;-44
2023/10/01 09:11:45;;;;;;;108.43;56.80;;;20.60;77.80;;;;;;4929475;28;91069;-41
2023/10/01 09:14:25;;;;;;;108.95;57.20;;;20.70;78.20;;;;;;4933567;28;90572;-39
2023/10/01 09:16:57;;;;;;;108.63;56.73;;;20.80;78.30;;;;;;4938167;28;90508;-41
2023/10/01 09:19:30;;;;;;;111.70;56.95;;;20.80;78.70;;;;;;4934875;28;90096;-42
2023/10/01 09:22:07;;;;;;;113.05;57.70;;;20.80;78.60;;;;;;4916089;28;90273;-39
2023/10/01 09:24:39;;;;;;;114.70;58.58;;;20.80;78.80;;;;;;4931410;28;90756;-36
2023/10/01 09:27:09;;;;;;;112.22;58.35;;;20.70;77.50;;;;;;4926713;28;89940;-36
2023/10/01 09:29:45;;;;;;;112.05;58.92;;;20.60;77.30;;;;;;4939752;28;90676;-44
2023/10/01 09:32:13;;;;;;;114.07;59.05;;;20.50;77.50;;;;;;4915881;28;89616;-44
2023/10/01 09:34:58;;;;;;;113.75;59.40;;;20.50;78.10;;;;;;4923069;28;91167;-44
2023/10/01 09:37:47;;;;;;;115.95;59.25;;;20.50;78.70;;;;;;4923312;28;91033;-44
2023/10/01 09:40:38;;;;;;;115.07;59.17;;;20.50;78.90;;;;;;4922931;28;91748;-44
2023/10/01 09:43:03;;;;;;;113.95;59.22;;;20.50;78.70;;;;;;4925198;28;90408;-44
2023/10/01 09:45:39;;;;;;;118.70;58.92;;;20.60;78.60;;;;;;4921270;28;89814;-44
2023/10/01 09:48:09;;;;;;;116.03;59.45;;;20.60;78.70;;;;;;4925318;28;90554;-44
2023/10/01 09:50:42;;;;;;;114.57;59.20;;;20.60;78.70;;;;;;4931405;28;90713;-44
2023/10/01 09:53:24;;;;;;;113.05;58.88;;;20.50;78.50;;;;;;4930909;28;89773;-45
2023/10/01 09:55:55;;;;;;;116.90;59.63;;;20.60;78.90;;;;;;4925064;28;91369;-44
2023/10/01 09:58:26;;;;;;;115.18;59.65;;;20.60;79.00;;;;;;4932111;28;89922;-44
2023/10/01 10:00:53;;;;;;;;;;;20.70;78.90;;;;;;4920061;28;90498;-44
2023/10/01 10:03:19;;;;;;;113.88;59.03;;;20.70;79.20;;;;;;4927634;28;89903;-44
2023/10/01 10:05:46;;;;;;;114.85;59.15;;;20.70;79.40;;;;;;4933406;28;90845;-44
2023/10/01 10:08:13;;;;;;;112.28;58.35;;;20.70;79.10;;;;;;4928271;28;91926;-44
2023/10/01 10:10:52;;;;;;;116.47;60.00;;;20.80;78.90;;;;;;4923677;28;90883;-44
2023/10/01 10:13:46;;;;;;;114.95;59.25;;;20.80;79.20;;;;;;4909442;28;89997;-44
2023/10/01 10:16:32;;;;;;;114.22;58.95;;;20.80;78.90;;;;;;4914781;28;90462;-44
2023/10/01 10:19:13;;;;;;;113.88;59.15;;;20.90;79.20;;;;;;4924917;28;89640;-44
2023/10/01 10:22:16;;;;;;;114.47;59.03;;;20.80;78.90;;;;;;4927105;28;89731;-44
2023/10/01 10:24:48;;;;;;;116.55;59.33;;;20.90;79.20;;;;;;4929663;28;89301;-44
2023/10/01 10:27:28;;;;;;;116.57;59.17;;;21.00;79.00;;;;;;4923885;28;90259;-44
2023/10/01 10:29:57;;;;;;;114.75;58.88;;;21.00;79.30;;;;;;4925667;28;92265;-44
2023/10/01 10:32:30;;;;;;;115.45;59.65;;;21.00;78.90;;;;;;4927159;28;95749;-44
2023/10/01 10:35:04;;;;;;;115.30;59.22;;;21.00;79.00;;;;;;4920773;28;90075;-44
2023/10/01 10:37:36;;;;;;;115.93;59.42;;;21.00;79.10;;;;;;4930648;28;90232;-44
2023/10/01 10:40:29;;;;;;;113.43;59.15;;;21.00;79.40;;;;;;4935888;28;90044;-44
2023/10/01 10:42:58;;;;;;;115.70;59.47;;;21.00;79.10;;;;;;4927910;28;91001;-44
2023/10/01 10:45:42;;;;;;;113.22;59.50;;;21.10;79.30;;;;;;4928535;28;91346;-44
2023/10/01 10:48:21;;;;;;;113.00;58.90;;;21.10;78.80;;;;;;4929403;28;89716;-44
2023/10/01 10:50:56;;;;;;;114.40;59.15;;;21.20;79.60;;;;;;4922200;28;95240;-44
2023/10/01 10:53:23;;;;;;;116.60;59.83;;;21.20;78.80;;;;;;4924952;28;90457;-44
2023/10/01 10:56:05;;;;;;;121.07;60.00;;;21.20;78.70;;;;;;4927519;28;89641;-43
2023/10/01 10:58:43;;;;;;;116.25;59.45;;;21.20;79.00;;;;;;4925414;28;93137;-44
2023/10/01 11:01:15;;;;;;;117.85;59.50;;;21.30;79.10;;;;;;4931496;28;93616;-44
2023/10/01 11:03:42;;;;;;;116.55;59.65;;;21.30;79.10;;;;;;4919500;28;95566;-44
2023/10/01 11:06:22;;;;;;;115.70;59.33;;;21.30;79.40;;;;;;4919988;28;90228;-44
2023/10/01 11:08:52;;;;;;;116.70;59.97;;;21.30;79.10;;;;;;4930326;28;90433;-44
2023/10/01 11:11:39;;;;;;;118.35;59.70;;;21.30;78.80;;;;;;4930433;28;90472;-44
2023/10/01 11:14:12;;;;;;;119.00;59.88;;;21.30;79.40;;;;;;4930020;28;89303;-44
2023/10/01 11:16:40;;;;;;;116.32;60.15;;;21.30;79.10;;;;;;4927105;28;91795;-44
2023/10/01 11:19:14;;;;;;;118.43;60.22;;;21.30;79.00;;;;;;4919961;28;91851;-44
2023/10/01 11:22:00;;;;;;;118.07;59.72;;;21.30;79.00;;;;;;4918074;28;92162;-45
2023/10/01 11:24:35;;;;;;;114.47;59.42;;;21.40;79.30;;;;;;4916955;28;91280;-44
2023/10/01 11:27:22;;;;;;;115.82;59.45;;;21.40;79.20;;;;;;4935673;28;89398;-47
2023/10/01 11:30:13;;;;;;;118.80;60.08;;;21.50;78.70;;;;;;4927399;28;91157;-47
2023/10/01 11:35:38;;;;;;;115.82;59.92;;;21.50;78.90;;;;;;4917028;28;95751;-39
2023/10/01 11:38:13;;;;;;;118.80;60.75;;;21.50;78.80;;;;;;4922993;28;90282;-39
2023/10/01 11:43:27;;;;;;;116.35;59.88;;;21.50;78.80;;;;;;4929263;28;90127;-39
2023/10/01 11:46:18;;;;;;;117.35;59.80;;;21.50;79.00;;;;;;4924685;28;89877;-39
2023/10/01 11:49:08;;;;;;;120.10;59.97;;;21.50;79.10;;;;;;4925815;28;92063;-39
2023/10/01 11:51:48;;;;;;;113.32;59.20;;;21.50;79.10;;;;;;4925188;28;92256;-39
2023/10/01 11:54:18;;;;;;;115.68;59.53;;;21.50;79.20;;;;;;4913700;28;92155;-38
2023/10/01 11:57:04;;;;;;;116.88;59.67;;;21.50;79.30;;;;;;4924706;28;90524;-38
2023/10/01 11:59:31;;;;;;;115.40;59.65;;;21.60;79.30;;;;;;4924881;28;93325;-45
2023/10/01 12:02:15;;;;;;;116.43;59.88;;;21.60;79.70;;;;;;4929963;28;90749;-45
2023/10/01 12:04:44;;;;;;;114.10;59.22;;;21.70;79.10;;;;;;4919229;28;95650;-46
2023/10/01 12:07:17;;;;;;;116.00;59.95;;;21.60;79.10;;;;;;4926177;28;89399;-42
2023/10/01 12:09:49;;;;;;;116.82;59.58;;;21.70;79.30;;;;;;4933001;28;89069;-44
2023/10/01 12:12:27;;;;;;;117.60;59.75;;;21.70;79.30;;;;;;4932918;28;90230;-44
2023/10/01 12:14:56;;;;;;;119.47;60.80;;;21.70;79.30;;;;;;4925234;28;90265;-44
2023/10/01 12:17:27;;;;;;;115.60;59.78;;;21.70;79.20;;;;;;4926598;28;91238;-45
2023/10/01 12:19:55;;;;;;;114.75;59.42;;;21.80;79.00;;;;;;4931891;28;90032;-45
2023/10/01 12:22:23;;;;;;;115.53;60.15;;;21.80;78.60;;;;;;4922789;28;94187;-44
2023/10/01 12:24:56;;;;;;;117.10;59.92;;;21.80;78.50;;;;;;4920150;28;90765;-46
2023/10/01 12:27:41;;;;;;;113.78;60.03;;;21.90;78.60;;;;;;4918876;28;91384;-45
2023/10/01 12:30:27;;;;;;;116.43;59.72;;;21.90;78.40;;;;;;4924245;28;89680;-46
2023/10/01 12:33:02;;;;;;;119.82;60.17;;;21.90;78.30;;;;;;4932602;28;90359;-46
2023/10/01 12:35:30;;;;;;;116.18;59.65;;;21.90;78.60;;;;;;4937117;28;89861;-46
2023/10/01 12:40:35;;;;;;;115.22;59.75;;;21.90;78.30;;;;;;4926107;28;89896;-46
2023/10/01 12:45:50;;;;;;;117.10;60.50;;;22.00;78.90;;;;;;4936870;28;91646;-46
2023/10/01 12:48:20;;;;;;;118.85;60.10;;;22.10;78.00;;;;;;4926681;28;91713;-46
2023/10/01 12:50:59;;;;;;;117.55;60.85;;;22.20;77.60;;;;;;4931033;28;89659;-46
2023/10/01 12:53:26;;;;;;;120.55;59.85;;;22.30;77.20;;;;;;4928267;28;90715;-47
2023/10/01 12:55:52;;;;;;;121.20;59.50;;;22.30;77.00;;;;;;4930037;28;91193;-47
2023/10/01 12:58:29;;;;;;;117.03;60.75;;;22.40;76.60;;;;;;4929535;28;90969;-45
2023/10/01 13:00:57;;;;;;;116.55;60.40;;;22.50;75.80;;;;;;4911362;28;89009;-37
2023/10/01 13:03:23;;;;;;;117.82;60.72;;;22.60;75.70;;;;;;4931781;28;89669;-39
2023/10/01 13:05:52;;;;;;;116.07;59.95;;;22.70;75.30;;;;;;4928334;28;90656;-39
2023/10/01 13:08:29;;;;;;;118.75;60.60;;;22.60;75.20;;;;;;4934002;28;91048;-39
2023/10/01 13:10:59;;;;;;;120.45;61.17;;;22.70;74.10;;;;;;4932818;28;91515;-38
2023/10/01 13:13:30;;;;;;;116.47;60.60;;;22.70;74.70;;;;;;4929484;28;90062;-38
2023/10/01 13:16:00;;;;;;;114.78;59.53;;;22.70;74.60;;;;;;4934331;28;90621;-38
2023/10/01 13:18:29;;;;;;;119.43;60.92;;;22.80;73.70;;;;;;4917832;28;90526;-38
2023/10/01 13:23:25;;;;;;;121.95;61.38;;;22.90;72.90;;;;;;4918293;28;91356;-37
2023/10/01 13:26:05;;;;;;;117.85;61.13;;;22.90;73.00;;;;;;4924208;28;89136;-37
2023/10/01 13:28:45;;;;;;;116.45;60.35;;;22.90;73.10;;;;;;4929975;28;90638;-38
2023/10/01 13:31:35;;;;;;;119.18;60.35;;;22.90;72.20;;;;;;4927622;28;89503;-37
2023/10/01 14:09:52;;;;;;;118.57;60.90;;;23.40;70.40;;;;;;4936087;28;89720;-39
2023/10/01 14:15:05;;;;;;;119.28;60.50;;;23.30;70.20;;;;;;4929235;28;90448;-41
2023/10/01 14:17:32;;;;;;;121.35;60.88;;;23.30;70.20;;;;;;4934967;28;91551;-38
2023/10/01 14:19:58;;;;;;;118.80;61.35;;;23.30;70.30;;;;;;4927716;28;90055;-40